Terminal Aerodrome Forecast
Issued by NWS Flagstaff, AZ

Home | Current Version | Previous Version | Text Only | Print | Product List | Glossary On
Versions: 1 2 3 4 5 6 7 8 9 10 11 12 13 14 15 16 17 18 19 20 21 22 23
770
FTUS45 KFGZ 301726
TAFINW
TAF
KINW 301726Z 3018/0118 27005KT P6SM SCT060 BKN090
     FM301900 19010KT P6SM BKN050 OVC070
      TEMPO 3022/0102 SHRA OVC035
     FM010200 07005KT P6SM -SHRA BKN035 OVC050=

USA.gov is the U.S. government's official web portal to all federal, state and local government web resources and services.